Time;durP1;ratioP1;P1;durP2;ratioP2;P2;SDS_P1;SDS_P2;PMS_P1;PMS_P2;Temp;Humidity;BMP_temperature;BMP_pressure;BME280_temperature;BME280_humidity;BME280_pressure;Samples;Min_cycle;Max_cycle;Signal;HPM_P1;HPM_P2
2022/08/28 00:02:02;;;;;;;1.60;1.50;;;23.20;65.30;;;;;;5040929;28;44672;-67
2022/08/28 00:04:30;;;;;;;1.73;1.63;;;23.20;65.30;;;;;;5041234;28;43474;-67
2022/08/28 00:06:57;;;;;;;2.88;1.70;;;23.20;65.30;;;;;;5032103;28;43446;-66
2022/08/28 00:09:25;;;;;;;2.55;1.90;;;23.20;65.30;;;;;;5038708;28;43560;-66
2022/08/28 00:11:53;;;;;;;1.65;1.50;;;23.20;65.30;;;;;;5034442;28;44025;-67
2022/08/28 00:14:21;;;;;;;1.70;1.60;;;23.20;65.30;;;;;;5040192;28;43683;-67
2022/08/28 00:16:49;;;;;;;1.90;1.52;;;23.20;65.30;;;;;;5031515;28;43535;-67
2022/08/28 00:19:18;;;;;;;2.35;1.80;;;23.20;65.30;;;;;;5037656;28;43509;-67
2022/08/28 00:21:46;;;;;;;2.03;1.70;;;23.10;65.30;;;;;;5030151;28;44988;-67
2022/08/28 00:24:14;;;;;;;2.10;1.60;;;23.10;65.30;;;;;;5031585;28;44042;-66
2022/08/28 00:29:29;;;;;;;2.45;1.80;;;23.10;65.30;;;;;;5041354;28;43573;-66
2022/08/28 00:31:56;;;;;;;1.70;1.60;;;23.10;65.30;;;;;;5034011;28;44827;-67
2022/08/28 00:34:24;;;;;;;2.33;2.10;;;23.10;65.30;;;;;;5029520;28;43702;-66
2022/08/28 00:36:59;;;;;;;1.65;1.40;;;23.10;65.30;;;;;;5033665;28;43486;-66
2022/08/28 00:39:27;;;;;;;2.45;1.77;;;23.10;65.30;;;;;;5039761;28;43447;-66
2022/08/28 00:41:56;;;;;;;1.90;1.77;;;23.10;65.30;;;;;;5036803;28;43746;-66
2022/08/28 00:44:26;;;;;;;1.73;1.63;;;23.10;65.30;;;;;;5037614;28;43478;-66
2022/08/28 00:46:55;;;;;;;2.15;1.70;;;23.10;65.30;;;;;;5037035;28;43487;-67
2022/08/28 00:49:28;;;;;;;1.58;1.48;;;23.10;65.30;;;;;;5043690;28;43460;-66
2022/08/28 00:52:06;;;;;;;3.13;1.80;;;23.10;65.30;;;;;;5034490;28;44998;-66
2022/08/28 00:54:40;;;;;;;2.10;1.58;;;23.10;65.30;;;;;;5044288;28;44025;-66
2022/08/28 00:57:47;;;;;;;2.17;1.70;;;23.00;65.30;;;;;;5041955;28;43372;-66
2022/08/28 01:00:20;;;;;;;1.92;1.70;;;23.00;65.30;;;;;;5030109;28;43526;-66
2022/08/28 01:02:48;;;;;;;2.30;1.90;;;23.00;65.30;;;;;;5036512;28;44981;-66
2022/08/28 01:05:16;;;;;;;1.80;1.38;;;23.00;65.30;;;;;;5043327;28;43474;-66
2022/08/28 01:07:44;;;;;;;3.42;1.60;;;23.00;65.30;;;;;;5040373;28;43392;-67
2022/08/28 01:10:17;;;;;;;1.83;1.73;;;23.00;65.30;;;;;;5032166;28;43491;-66
2022/08/28 01:12:45;;;;;;;1.63;1.50;;;23.00;65.30;;;;;;5043129;28;43941;-66
2022/08/28 01:15:16;;;;;;;1.98;1.70;;;23.00;65.30;;;;;;5042980;28;43646;-66
2022/08/28 01:17:50;;;;;;;1.70;1.60;;;23.00;65.30;;;;;;5039885;28;43495;-67
2022/08/28 01:20:23;;;;;;;1.60;1.50;;;23.00;65.30;;;;;;5028974;28;43539;-66
2022/08/28 01:23:11;;;;;;;1.42;1.33;;;23.00;65.30;;;;;;5042134;28;44667;-66
2022/08/28 01:25:40;;;;;;;1.50;1.40;;;23.00;65.30;;;;;;5039941;28;44012;-67
2022/08/28 01:28:11;;;;;;;2.22;1.80;;;22.90;65.20;;;;;;5042736;28;43451;-66
2022/08/28 01:30:45;;;;;;;1.83;1.70;;;22.90;65.20;;;;;;5035342;28;43453;-66
2022/08/28 01:33:14;;;;;;;3.83;1.85;;;22.90;65.20;;;;;;5042590;28;43789;-66
2022/08/28 01:35:44;;;;;;;1.77;1.50;;;22.90;65.20;;;;;;5036940;28;43716;-66
2022/08/28 01:38:13;;;;;;;2.67;1.85;;;22.90;65.20;;;;;;5035241;28;43479;-66
2022/08/28 01:40:51;;;;;;;2.10;1.60;;;22.90;65.20;;;;;;5043897;28;43562;-67
2022/08/28 01:43:22;;;;;;;1.70;1.60;;;22.90;65.20;;;;;;5036629;28;44706;-66
2022/08/28 01:45:53;;;;;;;1.67;1.40;;;23.00;65.30;;;;;;5043450;28;44015;-66
2022/08/28 01:48:24;;;;;;;1.75;1.65;;;22.90;65.20;;;;;;5033999;28;43475;-67
2022/08/28 01:50:52;;;;;;;;;;;22.90;65.20;;;;;;5039928;28;43474;-66
2022/08/28 01:53:24;;;;;;;1.90;1.50;;;22.90;65.20;;;;;;5039438;28;44005;-67
2022/08/28 01:56:01;;;;;;;2.10;1.77;;;22.90;65.20;;;;;;5026977;28;43712;-67
2022/08/28 01:58:31;;;;;;;1.65;1.55;;;22.80;65.20;;;;;;5037121;28;43495;-66
2022/08/28 02:01:17;;;;;;;1.52;1.42;;;22.80;65.10;;;;;;5041133;28;43619;-67
2022/08/28 02:03:45;;;;;;;2.28;1.50;;;22.90;65.10;;;;;;5043420;28;44880;-66
2022/08/28 02:06:14;;;;;;;2.80;1.60;;;22.90;65.10;;;;;;5034217;28;43509;-66
2022/08/28 02:08:42;;;;;;;2.92;1.85;;;22.80;65.10;;;;;;5035975;28;44132;-66
2022/08/28 02:11:11;;;;;;;2.28;1.55;;;22.80;65.10;;;;;;5054775;28;43507;-66
2022/08/28 02:13:39;;;;;;;2.03;1.55;;;22.80;65.10;;;;;;5042240;28;44700;-66
2022/08/28 02:16:08;;;;;;;1.63;1.50;;;22.80;65.10;;;;;;5053889;28;43536;-66
2022/08/28 02:18:36;;;;;;;2.90;1.50;;;22.80;65.10;;;;;;5035065;28;43479;-66
2022/08/28 02:21:05;;;;;;;1.73;1.60;;;22.80;65.00;;;;;;5041837;28;43501;-66
2022/08/28 02:23:33;;;;;;;1.88;1.40;;;22.80;65.00;;;;;;5033228;28;43962;-67
2022/08/28 02:26:00;;;;;;;3.08;1.98;;;22.80;65.00;;;;;;5034589;28;43993;-66
2022/08/28 02:28:28;;;;;;;1.75;1.40;;;22.80;65.10;;;;;;5040085;28;43458;-66
2022/08/28 02:30:56;;;;;;;1.67;1.58;;;22.80;65.10;;;;;;5023841;28;43496;-66
2022/08/28 02:33:23;;;;;;;1.77;1.55;;;22.80;65.00;;;;;;5032288;28;43806;-67
2022/08/28 02:35:51;;;;;;;2.47;1.63;;;22.80;65.10;;;;;;5036233;28;43759;-66
2022/08/28 02:38:19;;;;;;;1.98;1.48;;;22.80;65.10;;;;;;5040706;28;43436;-67
2022/08/28 02:40:47;;;;;;;2.15;1.65;;;22.80;65.10;;;;;;5042891;28;43514;-67
2022/08/28 02:43:14;;;;;;;2.63;1.48;;;22.80;65.00;;;;;;5034057;28;43808;-67
2022/08/28 02:45:42;;;;;;;1.60;1.50;;;22.80;65.00;;;;;;5040078;28;43514;-66
2022/08/28 02:48:09;;;;;;;2.22;1.50;;;22.70;65.40;;;;;;5041642;28;43470;-67
2022/08/28 02:50:44;;;;;;;1.90;1.63;;;22.80;65.10;;;;;;5041650;28;43547;-67
2022/08/28 02:53:12;;;;;;;2.60;1.52;;;22.70;65.00;;;;;;5041971;28;44985;-67
2022/08/28 02:55:40;;;;;;;2.30;1.80;;;22.70;65.10;;;;;;5038027;28;43491;-66
2022/08/28 02:58:08;;;;;;;2.53;1.58;;;22.70;65.00;;;;;;5039164;28;43427;-66
2022/08/28 03:00:36;;;;;;;2.00;1.40;;;22.70;65.00;;;;;;5032102;28;43527;-66
2022/08/28 03:03:04;;;;;;;1.58;1.42;;;22.70;65.00;;;;;;5035769;28;44059;-66
2022/08/28 03:05:31;;;;;;;2.08;1.67;;;22.70;65.00;;;;;;5041333;28;44288;-67
2022/08/28 03:07:59;;;;;;;2.28;1.70;;;22.70;65.00;;;;;;5037674;28;43463;-66
2022/08/28 03:10:26;;;;;;;1.67;1.58;;;22.70;65.00;;;;;;5026459;28;43566;-66
2022/08/28 03:12:54;;;;;;;2.33;1.75;;;22.70;65.00;;;;;;5041314;28;44396;-67
2022/08/28 03:15:21;;;;;;;1.67;1.58;;;22.70;65.00;;;;;;5040739;28;43426;-67
2022/08/28 03:17:49;;;;;;;2.40;1.67;;;22.70;65.00;;;;;;5037838;28;43523;-66
2022/08/28 03:20:17;;;;;;;2.90;1.50;;;22.70;65.00;;;;;;5027470;28;43450;-66
2022/08/28 03:25:31;;;;;;;1.73;1.40;;;22.70;65.00;;;;;;5037903;28;43659;-66
2022/08/28 03:27:58;;;;;;;1.73;1.63;;;22.70;65.00;;;;;;5039970;28;43442;-67
2022/08/28 03:30:26;;;;;;;1.80;1.55;;;22.60;65.00;;;;;;5035016;28;43593;-67
2022/08/28 03:32:53;;;;;;;1.98;1.73;;;22.70;65.10;;;;;;5042559;28;45020;-67
2022/08/28 03:35:21;;;;;;;4.38;1.80;;;22.70;65.00;;;;;;5037831;28;43620;-66
2022/08/28 03:37:48;;;;;;;2.80;1.63;;;22.60;65.00;;;;;;5025766;28;43399;-66
2022/08/28 03:40:16;;;;;;;1.70;1.60;;;22.60;65.00;;;;;;5032237;28;43567;-66
2022/08/28 03:42:44;;;;;;;2.05;1.60;;;22.70;65.10;;;;;;5038110;28;45038;-66
2022/08/28 03:45:20;;;;;;;2.03;1.50;;;22.60;65.00;;;;;;5037761;28;44004;-66
2022/08/28 03:47:48;;;;;;;2.08;1.50;;;22.60;65.10;;;;;;5027103;28;43444;-67
2022/08/28 03:50:17;;;;;;;2.22;1.40;;;22.60;65.00;;;;;;5035028;28;43490;-66
2022/08/28 03:52:46;;;;;;;1.90;1.63;;;22.60;65.10;;;;;;5040868;28;44758;-66
2022/08/28 03:55:14;;;;;;;1.45;1.35;;;22.60;65.10;;;;;;5027804;28;43515;-66
2022/08/28 03:57:42;;;;;;;1.58;1.38;;;22.60;65.10;;;;;;5034496;28;43447;-66
2022/08/28 04:00:12;;;;;;;1.75;1.55;;;22.60;65.10;;;;;;5037568;28;43553;-66
2022/08/28 04:02:44;;;;;;;1.80;1.30;;;22.60;65.00;;;;;;5040001;28;43868;-67
2022/08/28 04:05:13;;;;;;;1.52;1.40;;;22.60;65.00;;;;;;5036697;28;43424;-66
2022/08/28 04:07:40;;;;;;;2.00;1.60;;;22.60;65.00;;;;;;5032186;28;43463;-66
2022/08/28 04:10:08;;;;;;;2.28;1.50;;;22.60;65.00;;;;;;5053732;28;43472;-66
2022/08/28 04:12:36;;;;;;;1.95;1.58;;;22.60;65.00;;;;;;5039885;28;44996;-66
2022/08/28 04:15:04;;;;;;;1.80;1.60;;;22.60;65.10;;;;;;5036724;28;43427;-67
2022/08/28 04:17:35;;;;;;;1.98;1.60;;;22.60;65.00;;;;;;5032743;28;43474;-66
2022/08/28 04:20:04;;;;;;;1.23;1.13;;;22.60;65.00;;;;;;5039021;28;43519;-66
2022/08/28 04:22:31;;;;;;;1.48;1.38;;;22.60;65.00;;;;;;5031025;28;43886;-67
2022/08/28 04:25:00;;;;;;;1.58;1.48;;;22.50;65.00;;;;;;5038826;28;43531;-66
2022/08/28 04:27:27;;;;;;;2.53;1.52;;;22.60;65.00;;;;;;5043076;28;43491;-66
2022/08/28 04:29:55;;;;;;;2.13;1.70;;;22.50;65.00;;;;;;5043633;28;43515;-66
2022/08/28 04:32:22;;;;;;;1.75;1.25;;;22.60;65.00;;;;;;5034526;28;44657;-66
2022/08/28 04:34:50;;;;;;;2.22;1.50;;;22.50;64.90;;;;;;5031751;28;43459;-66
2022/08/28 04:37:18;;;;;;;1.50;1.40;;;22.50;64.90;;;;;;5040495;28;43368;-66
2022/08/28 04:39:45;;;;;;;2.65;1.52;;;22.60;65.00;;;;;;5042992;28;43602;-67
2022/08/28 04:42:13;;;;;;;2.35;1.60;;;22.50;64.90;;;;;;5031301;28;44039;-66
2022/08/28 04:44:41;;;;;;;2.22;1.42;;;22.50;65.00;;;;;;5032130;28;43725;-66
2022/08/28 04:47:08;;;;;;;2.15;1.30;;;22.50;65.00;;;;;;5041033;28;43444;-66
2022/08/28 04:49:37;;;;;;;1.67;1.50;;;22.50;64.90;;;;;;5031171;28;43574;-66
2022/08/28 04:52:04;;;;;;;2.35;1.50;;;22.50;64.90;;;;;;5043653;28;44036;-66
2022/08/28 04:54:35;;;;;;;2.65;1.70;;;22.50;64.90;;;;;;5039884;28;43411;-67
2022/08/28 04:57:02;;;;;;;1.42;1.15;;;22.50;64.90;;;;;;5042728;28;43490;-67
2022/08/28 04:59:33;;;;;;;1.80;1.50;;;22.50;65.00;;;;;;5030909;28;43550;-66
2022/08/28 05:02:00;;;;;;;2.03;1.52;;;22.50;64.90;;;;;;5040758;28;44739;-66
2022/08/28 05:04:28;;;;;;;1.48;1.38;;;22.50;64.90;;;;;;5040189;28;43602;-66
2022/08/28 05:06:56;;;;;;;2.72;1.67;;;22.50;65.00;;;;;;5042163;28;44009;-66
2022/08/28 05:09:23;;;;;;;2.08;1.42;;;22.50;65.00;;;;;;5032331;28;43423;-66
2022/08/28 05:11:52;;;;;;;1.75;1.40;;;22.50;65.00;;;;;;5043636;28;44061;-66
2022/08/28 05:14:20;;;;;;;2.00;1.48;;;22.50;65.10;;;;;;5042734;28;43517;-66
2022/08/28 05:16:51;;;;;;;2.03;1.45;;;22.50;65.10;;;;;;5043515;28;43500;-67
2022/08/28 05:19:20;;;;;;;1.65;1.38;;;22.50;65.10;;;;;;5032160;28;43490;-66
2022/08/28 05:21:47;;;;;;;1.85;1.30;;;22.50;65.10;;;;;;5039120;28;44036;-66
2022/08/28 05:24:16;;;;;;;1.23;1.13;;;22.50;65.10;;;;;;5039968;28;43647;-67
2022/08/28 05:26:44;;;;;;;1.80;1.55;;;22.40;65.00;;;;;;5038344;28;43535;-67
2022/08/28 05:29:15;;;;;;;1.60;1.50;;;22.40;65.00;;;;;;5032525;28;43602;-67
2022/08/28 05:31:43;;;;;;;1.55;1.45;;;22.50;65.10;;;;;;5037041;28;45065;-66
2022/08/28 05:34:13;;;;;;;1.65;1.17;;;22.50;65.70;;;;;;5040943;28;43701;-67
2022/08/28 05:36:41;;;;;;;1.50;1.35;;;22.40;65.00;;;;;;5031112;28;43483;-66
2022/08/28 05:39:11;;;;;;;1.60;1.42;;;22.50;65.00;;;;;;5032940;28;43503;-66
2022/08/28 05:41:41;;;;;;;2.45;1.25;;;22.50;65.00;;;;;;5034770;28;44700;-66
2022/08/28 05:44:11;;;;;;;1.70;1.60;;;22.40;65.00;;;;;;5043360;28;44562;-66
2022/08/28 05:46:42;;;;;;;1.98;1.48;;;22.40;65.00;;;;;;5032636;28;43464;-67
2022/08/28 05:49:11;;;;;;;1.55;1.42;;;22.40;65.00;;;;;;5032258;28;43476;-67
2022/08/28 05:51:41;;;;;;;1.50;1.40;;;22.40;65.00;;;;;;5048708;28;44983;-66
2022/08/28 05:54:09;;;;;;;1.33;1.23;;;22.40;65.00;;;;;;5052938;28;43742;-68
2022/08/28 05:56:39;;;;;;;1.90;1.23;;;22.40;65.00;;;;;;5053022;28;43415;-66
2022/08/28 05:59:08;;;;;;;1.35;1.20;;;22.40;65.00;;;;;;5053325;28;43589;-67
2022/08/28 06:01:43;;;;;;;1.77;1.60;;;22.40;65.10;;;;;;5050678;28;43840;-67
2022/08/28 06:04:18;;;;;;;1.63;1.38;;;22.40;65.10;;;;;;5051246;28;43757;-67
2022/08/28 06:06:46;;;;;;;1.98;1.30;;;22.40;65.10;;;;;;5051108;28;43510;-66
2022/08/28 06:09:23;;;;;;;1.80;1.40;;;22.40;65.10;;;;;;5049230;28;43459;-67
2022/08/28 06:12:01;;;;;;;2.08;1.40;;;22.40;65.40;;;;;;5048484;28;44045;-68
2022/08/28 06:14:29;;;;;;;2.15;1.20;;;22.40;65.10;;;;;;5049759;28;44015;-68
2022/08/28 06:16:57;;;;;;;1.42;1.20;;;22.40;65.10;;;;;;5051719;28;43407;-66
2022/08/28 06:19:27;;;;;;;1.65;1.30;;;22.40;65.20;;;;;;5051713;28;43649;-67
2022/08/28 06:21:57;;;;;;;2.80;1.58;;;22.40;65.20;;;;;;5048585;28;43805;-67
2022/08/28 06:24:26;;;;;;;2.42;1.35;;;22.40;65.20;;;;;;5048526;28;44181;-67
2022/08/28 06:26:55;;;;;;;1.20;1.10;;;22.40;65.20;;;;;;5051078;28;43442;-67
2022/08/28 06:29:26;;;;;;;1.45;1.35;;;22.40;65.20;;;;;;5050316;28;43488;-66
2022/08/28 06:31:59;;;;;;;1.98;1.50;;;22.40;65.20;;;;;;5046098;28;43804;-67
2022/08/28 06:34:28;;;;;;;1.67;1.33;;;22.40;65.20;;;;;;5039305;28;43667;-66
2022/08/28 06:36:57;;;;;;;1.38;1.27;;;22.30;65.20;;;;;;5034301;28;43399;-66
2022/08/28 06:39:24;;;;;;;2.17;1.27;;;22.40;65.20;;;;;;5040338;28;43641;-66
2022/08/28 06:41:52;;;;;;;2.35;1.40;;;22.40;65.20;;;;;;5029829;28;43770;-66
2022/08/28 06:44:21;;;;;;;1.80;1.48;;;22.40;65.20;;;;;;5037118;28;44000;-66
2022/08/28 06:46:52;;;;;;;1.50;1.30;;;22.40;65.20;;;;;;5036117;28;43427;-67
2022/08/28 06:49:20;;;;;;;1.98;1.30;;;22.40;65.10;;;;;;5041698;28;43506;-67
2022/08/28 06:51:47;;;;;;;1.20;1.10;;;22.40;65.10;;;;;;5025747;28;44380;-67
2022/08/28 06:54:16;;;;;;;1.55;1.38;;;22.40;65.10;;;;;;5038361;28;43462;-67
2022/08/28 06:56:50;;;;;;;1.90;1.33;;;22.40;65.10;;;;;;5035600;28;43473;-66
2022/08/28 06:59:18;;;;;;;1.30;1.20;;;22.40;65.10;;;;;;5040098;28;43611;-67
2022/08/28 07:01:45;;;;;;;1.95;1.50;;;22.40;65.00;;;;;;5028201;28;44950;-67
2022/08/28 07:04:13;;;;;;;1.65;1.40;;;22.40;65.10;;;;;;5034893;28;44296;-66
2022/08/28 07:06:44;;;;;;;1.65;1.40;;;22.40;65.00;;;;;;5048451;28;43582;-67
2022/08/28 07:09:13;;;;;;;1.98;1.40;;;22.40;65.00;;;;;;5041391;28;43470;-66
2022/08/28 07:11:45;;;;;;;1.63;1.30;;;22.40;65.00;;;;;;5030287;28;43811;-67
2022/08/28 07:14:12;;;;;;;2.20;1.45;;;22.40;65.00;;;;;;5040982;28;44122;-67
2022/08/28 07:16:40;;;;;;;2.03;1.30;;;22.40;65.00;;;;;;5041089;28;43456;-66
2022/08/28 07:19:10;;;;;;;1.48;1.30;;;22.40;65.00;;;;;;5040843;28;43566;-67
2022/08/28 07:21:40;;;;;;;1.42;1.33;;;22.30;65.00;;;;;;5038181;28;44057;-66
2022/08/28 07:24:10;;;;;;;2.10;1.40;;;22.40;65.00;;;;;;5029321;28;43495;-67
2022/08/28 07:26:40;;;;;;;1.67;1.30;;;22.40;65.00;;;;;;5037597;28;43450;-66
2022/08/28 07:29:08;;;;;;;2.58;1.20;;;22.30;64.90;;;;;;5040825;28;43496;-67
2022/08/28 07:31:43;;;;;;;1.63;1.23;;;22.40;65.00;;;;;;5030904;28;44673;-67
2022/08/28 07:34:12;;;;;;;1.23;1.13;;;22.40;65.00;;;;;;5035811;28;43725;-67
2022/08/28 07:36:40;;;;;;;1.45;1.35;;;22.40;64.90;;;;;;5038738;28;43477;-66
2022/08/28 07:39:09;;;;;;;2.35;1.30;;;22.40;64.90;;;;;;5039524;28;43477;-66
2022/08/28 07:41:39;;;;;;;1.48;1.20;;;22.40;65.00;;;;;;5031640;28;44690;-66
2022/08/28 07:46:59;;;;;;;1.42;1.33;;;22.40;65.10;;;;;;5039149;28;43515;-67
2022/08/28 07:49:26;;;;;;;1.80;1.50;;;22.40;65.20;;;;;;5028583;28;43523;-66
2022/08/28 07:51:54;;;;;;;3.17;1.60;;;22.30;65.10;;;;;;5036713;28;43808;-67
2022/08/28 07:54:22;;;;;;;1.77;1.63;;;22.40;65.40;;;;;;5041853;28;43383;-66
2022/08/28 07:56:51;;;;;;;2.42;1.70;;;22.40;65.40;;;;;;5026722;28;43534;-67
2022/08/28 07:59:19;;;;;;;2.47;1.38;;;22.40;65.40;;;;;;5035906;28;43442;-66
2022/08/28 08:01:50;;;;;;;1.63;1.35;;;22.40;65.50;;;;;;5035432;28;44666;-67
2022/08/28 08:04:20;;;;;;;2.83;1.70;;;22.40;65.40;;;;;;5040753;28;43430;-66
2022/08/28 08:06:48;;;;;;;2.13;1.57;;;22.40;65.30;;;;;;5038718;28;43456;-66
2022/08/28 08:09:21;;;;;;;2.50;1.50;;;22.40;65.30;;;;;;5028972;28;43384;-65
2022/08/28 08:11:49;;;;;;;2.33;1.50;;;22.40;65.30;;;;;;5037484;28;43987;-66
2022/08/28 08:14:17;;;;;;;2.67;1.58;;;22.40;65.20;;;;;;5040713;28;43491;-66
2022/08/28 08:16:46;;;;;;;3.25;1.58;;;22.40;65.30;;;;;;5025961;28;43500;-65
2022/08/28 08:19:14;;;;;;;2.58;1.55;;;22.40;65.30;;;;;;5028957;28;43526;-65
2022/08/28 08:21:45;;;;;;;2.30;1.80;;;22.40;65.30;;;;;;5037989;28;44629;-66
2022/08/28 08:24:19;;;;;;;1.98;1.60;;;22.40;65.30;;;;;;5040170;28;43483;-66
2022/08/28 08:26:47;;;;;;;2.70;1.83;;;22.40;65.20;;;;;;5030975;28;43403;-66
2022/08/28 08:29:28;;;;;;;2.25;1.58;;;22.40;65.20;;;;;;5035976;28;43389;-66
2022/08/28 08:32:04;;;;;;;2.73;1.70;;;22.40;65.30;;;;;;5039644;28;45009;-65
2022/08/28 08:34:35;;;;;;;2.33;1.45;;;22.40;65.30;;;;;;5028406;28;43787;-66
2022/08/28 08:37:04;;;;;;;3.20;1.90;;;22.40;65.20;;;;;;5033973;28;43463;-66
2022/08/28 08:39:35;;;;;;;1.88;1.50;;;22.40;65.20;;;;;;5036468;28;43495;-66
2022/08/28 08:42:04;;;;;;;;;;;22.40;65.20;;;;;;5038975;28;45010;-66
2022/08/28 08:44:42;;;;;;;1.70;1.50;;;22.40;65.20;;;;;;5025091;28;43557;-66
2022/08/28 08:47:29;;;;;;;2.85;1.48;;;22.40;65.30;;;;;;5033000;28;43508;-66
2022/08/28 08:50:08;;;;;;;3.22;1.63;;;22.40;65.20;;;;;;5036934;28;43475;-65
2022/08/28 08:52:56;;;;;;;2.03;1.58;;;22.40;65.20;;;;;;5033492;28;45037;-66
2022/08/28 08:55:25;;;;;;;1.60;1.50;;;22.40;65.20;;;;;;5032933;28;43945;-66
2022/08/28 08:58:04;;;;;;;1.88;1.40;;;22.40;65.20;;;;;;5033589;28;43452;-67
2022/08/28 09:00:42;;;;;;;2.45;1.65;;;22.40;65.20;;;;;;5033523;28;43494;-66
2022/08/28 09:03:17;;;;;;;2.63;1.70;;;22.40;65.20;;;;;;5036419;28;43917;-66
2022/08/28 09:05:53;;;;;;;2.38;1.70;;;22.40;65.10;;;;;;5037739;28;43439;-66
2022/08/28 09:08:55;;;;;;;1.50;1.40;;;22.40;65.00;;;;;;5041661;28;43385;-66
2022/08/28 09:11:53;;;;;;;2.05;1.70;;;22.40;65.10;;;;;;5039150;28;43559;-65
2022/08/28 09:14:32;;;;;;;2.00;1.60;;;22.40;65.10;;;;;;5037045;28;43778;-65
2022/08/28 09:17:01;;;;;;;2.15;1.45;;;22.40;65.20;;;;;;5041077;28;43438;-65
2022/08/28 09:19:29;;;;;;;2.58;1.45;;;22.50;65.30;;;;;;5040810;28;43490;-66
2022/08/28 09:21:56;;;;;;;2.97;1.60;;;22.50;65.10;;;;;;5029627;28;43476;-65
2022/08/28 09:24:34;;;;;;;1.60;1.48;;;22.50;65.10;;;;;;5036229;28;44976;-66
2022/08/28 09:27:08;;;;;;;2.22;1.60;;;22.50;65.20;;;;;;5041071;28;43487;-66
2022/08/28 09:29:42;;;;;;;2.15;1.58;;;22.50;65.10;;;;;;5026970;28;43423;-65
2022/08/28 09:32:43;;;;;;;1.70;1.45;;;22.50;65.20;;;;;;5038927;28;43507;-66
2022/08/28 09:35:23;;;;;;;;;;;22.50;65.10;;;;;;5052905;28;44656;-66
2022/08/28 09:37:51;;;;;;;3.50;1.73;;;22.50;65.10;;;;;;5024742;28;43431;-65
2022/08/28 09:43:25;;;;;;;2.47;1.30;;;22.50;65.00;;;;;;5037604;28;43467;-65
2022/08/28 09:43:26;;;;;;;2.92;1.88;;;22.50;65.00;;;;;;5036215;28;43498;-65
2022/08/28 09:46:06;;;;;;;1.63;1.52;;;22.50;64.90;;;;;;5041540;28;43829;-65
2022/08/28 09:48:40;;;;;;;1.38;1.27;;;22.50;64.90;;;;;;5031650;28;43997;-65
2022/08/28 09:51:11;;;;;;;2.05;1.50;;;22.50;64.90;;;;;;5040341;28;43450;-65
2022/08/28 09:53:51;;;;;;;2.25;1.60;;;22.50;64.90;;;;;;5042297;28;43566;-66
2022/08/28 09:56:32;;;;;;;1.77;1.50;;;22.60;64.90;;;;;;5029758;28;44654;-66
2022/08/28 09:59:10;;;;;;;2.03;1.40;;;22.60;64.90;;;;;;5040052;28;43434;-66
2022/08/28 10:01:40;;;;;;;1.95;1.50;;;22.50;64.70;;;;;;5036018;28;43555;-66
2022/08/28 10:04:39;;;;;;;1.65;1.55;;;22.60;64.90;;;;;;5038846;28;43544;-66
2022/08/28 10:07:31;;;;;;;2.35;1.60;;;22.60;64.90;;;;;;5041953;28;45124;-66
2022/08/28 10:10:20;;;;;;;1.83;1.50;;;22.60;64.70;;;;;;5041481;28;43976;-66
2022/08/28 10:13:09;;;;;;;1.75;1.45;;;22.70;64.70;;;;;;5041501;28;43458;-66
2022/08/28 10:15:40;;;;;;;1.92;1.52;;;22.70;64.70;;;;;;5038875;28;43500;-66
2022/08/28 10:18:31;;;;;;;1.90;1.70;;;22.70;64.70;;;;;;5039642;28;44023;-67
2022/08/28 10:21:03;;;;;;;1.65;1.45;;;22.70;64.70;;;;;;5041829;28;43673;-68
2022/08/28 10:23:51;;;;;;;1.98;1.60;;;22.70;64.60;;;;;;5041086;28;43529;-67
2022/08/28 10:26:47;;;;;;;3.63;1.90;;;22.70;64.60;;;;;;5039371;28;43509;-67
2022/08/28 10:29:41;;;;;;;2.75;1.63;;;22.70;64.60;;;;;;5040565;28;45075;-68
2022/08/28 10:32:40;;;;;;;1.73;1.50;;;22.70;64.70;;;;;;5038196;28;43669;-67
2022/08/28 10:35:22;;;;;;;2.53;1.50;;;22.70;64.60;;;;;;5002951;28;43498;-68
2022/08/28 10:37:52;;;;;;;1.40;1.30;;;22.80;64.60;;;;;;5040355;28;43575;-69
2022/08/28 10:40:26;;;;;;;2.30;1.40;;;22.80;64.60;;;;;;5040571;28;43795;-67
2022/08/28 10:43:18;;;;;;;3.30;1.70;;;22.80;64.60;;;;;;5037309;28;43710;-68
2022/08/28 10:45:48;;;;;;;1.60;1.50;;;22.80;64.60;;;;;;5056014;28;43522;-68
2022/08/28 10:48:28;;;;;;;2.47;1.57;;;22.80;64.50;;;;;;5039481;28;43404;-68
2022/08/28 10:51:11;;;;;;;3.08;1.58;;;22.80;64.50;;;;;;5040784;28;43799;-68
2022/08/28 10:53:49;;;;;;;3.92;1.63;;;22.80;64.40;;;;;;5038613;28;43545;-68
2022/08/28 10:56:20;;;;;;;2.03;1.50;;;22.90;65.10;;;;;;5040113;28;44037;-68
2022/08/28 10:58:50;;;;;;;1.90;1.40;;;22.90;64.40;;;;;;5041149;28;44010;-68
2022/08/28 11:01:31;;;;;;;3.30;1.60;;;22.90;64.40;;;;;;5041011;28;44966;-68
2022/08/28 11:04:02;;;;;;;;;;;22.90;64.40;;;;;;5038252;28;44093;-68
2022/08/28 11:06:36;;;;;;;2.80;1.63;;;22.90;64.40;;;;;;5035952;28;43423;-68
2022/08/28 11:09:23;;;;;;;2.22;1.50;;;22.90;64.40;;;;;;5041832;28;43521;-68
2022/08/28 11:12:01;;;;;;;2.72;1.38;;;22.90;64.40;;;;;;5029516;28;44713;-67
2022/08/28 11:14:34;;;;;;;1.48;1.15;;;22.90;64.70;;;;;;5038400;28;43472;-68
2022/08/28 11:17:29;;;;;;;2.70;1.50;;;23.00;64.40;;;;;;5039621;28;43415;-68
2022/08/28 11:20:11;;;;;;;1.95;1.40;;;23.00;64.30;;;;;;5004816;28;43591;-68
2022/08/28 11:23:05;;;;;;;1.65;1.52;;;23.00;64.30;;;;;;5013628;28;44317;-68
2022/08/28 11:25:41;;;;;;;1.77;1.50;;;23.00;64.30;;;;;;5015627;28;44104;-68
2022/08/28 11:28:14;;;;;;;1.40;1.23;;;23.00;64.30;;;;;;5021077;28;43477;-68
2022/08/28 11:30:44;;;;;;;2.53;1.77;;;23.10;64.30;;;;;;5012120;28;43615;-68
2022/08/28 11:33:33;;;;;;;5.45;1.73;;;23.00;64.20;;;;;;5019147;28;44917;-68
2022/08/28 11:36:02;;;;;;;2.13;1.50;;;23.10;64.20;;;;;;5010909;28;43535;-68
2022/08/28 11:38:42;;;;;;;2.70;1.38;;;23.10;64.20;;;;;;5025496;28;43523;-68
2022/08/28 11:41:13;;;;;;;2.00;1.58;;;23.10;64.10;;;;;;5009917;28;43497;-68
2022/08/28 11:43:43;;;;;;;1.60;1.50;;;23.10;64.10;;;;;;5016048;28;44983;-69
2022/08/28 11:46:28;;;;;;;2.63;1.73;;;23.10;64.00;;;;;;5021473;28;43531;-68
2022/08/28 11:48:58;;;;;;;2.85;1.63;;;23.20;64.10;;;;;;5017764;28;44072;-68
2022/08/28 11:51:47;;;;;;;1.85;1.23;;;23.10;64.00;;;;;;5009553;28;43419;-68
2022/08/28 11:54:32;;;;;;;1.90;1.63;;;23.20;64.10;;;;;;5021549;28;44045;-68
2022/08/28 11:57:04;;;;;;;1.50;1.40;;;23.20;64.00;;;;;;5017965;28;44001;-68
2022/08/28 11:59:49;;;;;;;2.17;1.55;;;23.20;64.10;;;;;;5006851;28;43524;-68
2022/08/28 12:02:38;;;;;;;1.67;1.58;;;23.20;64.00;;;;;;5015851;28;43427;-68
2022/08/28 12:05:15;;;;;;;3.78;1.45;;;23.20;64.00;;;;;;5016397;28;44070;-68
2022/08/28 12:07:50;;;;;;;2.42;1.70;;;23.30;64.00;;;;;;5014378;28;44040;-68
2022/08/28 12:10:25;;;;;;;1.98;1.52;;;23.20;63.90;;;;;;5014389;28;43451;-68
2022/08/28 12:12:56;;;;;;;1.50;1.40;;;23.30;63.90;;;;;;5017950;28;43405;-67
2022/08/28 12:15:27;;;;;;;3.28;1.65;;;23.30;64.00;;;;;;5010990;28;45613;-68
2022/08/28 12:18:10;;;;;;;1.70;1.55;;;23.30;63.90;;;;;;5013247;28;43993;-68
2022/08/28 12:20:49;;;;;;;2.55;1.65;;;23.30;64.00;;;;;;5038387;28;43454;-67
2022/08/28 12:23:23;;;;;;;2.17;1.55;;;23.30;64.00;;;;;;5040548;28;43439;-68
2022/08/28 12:26:23;;;;;;;1.80;1.50;;;23.30;64.00;;;;;;5030075;28;44979;-69
2022/08/28 12:28:59;;;;;;;1.80;1.52;;;23.30;64.00;;;;;;5029077;28;43754;-68
2022/08/28 12:34:30;;;;;;;1.67;1.58;;;23.30;64.10;;;;;;5027815;28;43446;-68
2022/08/28 12:37:01;;;;;;;2.13;1.63;;;23.40;64.10;;;;;;5039979;28;44049;-68
2022/08/28 12:39:31;;;;;;;2.15;1.50;;;23.40;64.20;;;;;;5035585;28;43461;-68
2022/08/28 12:42:02;;;;;;;1.37;1.27;;;23.40;64.10;;;;;;5039227;28;43700;-68
2022/08/28 12:44:32;;;;;;;2.25;1.45;;;23.40;64.10;;;;;;5032216;28;43465;-68
2022/08/28 12:47:00;;;;;;;1.30;1.20;;;23.40;64.10;;;;;;5037249;28;44471;-68
2022/08/28 12:49:33;;;;;;;2.05;1.48;;;23.40;64.10;;;;;;5039327;28;44018;-68
2022/08/28 12:52:19;;;;;;;2.10;1.35;;;23.40;64.10;;;;;;5041823;28;43478;-68
2022/08/28 12:54:48;;;;;;;2.40;1.30;;;23.50;64.10;;;;;;5036621;28;44034;-68
2022/08/28 12:57:19;;;;;;;1.33;1.23;;;23.50;64.10;;;;;;5038549;28;44647;-68
2022/08/28 12:59:52;;;;;;;;;;;23.50;64.00;;;;;;5039609;28;43498;-68
2022/08/28 13:02:27;;;;;;;2.47;1.55;;;23.50;64.00;;;;;;5034110;28;43433;-68
2022/08/28 13:05:03;;;;;;;1.83;1.40;;;23.50;64.10;;;;;;5043377;28;43506;-68
2022/08/28 13:07:39;;;;;;;1.88;1.50;;;23.40;64.00;;;;;;5038803;28;43868;-68
2022/08/28 13:10:29;;;;;;;1.70;1.40;;;23.40;64.00;;;;;;5025382;28;43495;-69
2022/08/28 13:13:09;;;;;;;1.70;1.50;;;23.50;64.00;;;;;;5041050;28;43451;-68
2022/08/28 13:16:06;;;;;;;2.38;1.30;;;23.40;63.90;;;;;;5040633;28;43938;-68
2022/08/28 13:19:08;;;;;;;1.85;1.42;;;23.40;63.90;;;;;;5028412;28;43823;-68
2022/08/28 13:21:50;;;;;;;1.30;1.20;;;23.40;63.90;;;;;;5040315;28;43418;-68
2022/08/28 13:24:21;;;;;;;1.75;1.48;;;23.40;63.90;;;;;;5037197;28;43495;-68
2022/08/28 13:26:59;;;;;;;1.33;1.13;;;23.40;63.90;;;;;;5041666;28;43522;-69
2022/08/28 13:29:27;;;;;;;1.63;1.33;;;23.40;63.90;;;;;;5040199;28;43795;-68